BAW64K HKJK-EGLL
Flight info
| Callsign | BAW64K |
|---|---|
| Flight time | N/A |
| Altitude | 36000 |
| Route | ANTUK2D APKUB UQ293 EKMOG DCT NN UW325 SIPKI/N0502F350 UT325 BUN/N0499F360 UG862 ERTOM/N0492F380 UG862 DIR UB730 DJA UM2 RIMEL UR985 BSA/N0481F400 UJ66 ALR UN856 SADAF N856 UMURE N863 GIROM DCT AGN DCT SECHE DCT UVELI DCT CNA DCT MANAK DCT EPAPU UM184 EKRAS UT507 REVTU/N0496F340 UP87 ROXOG |
| Aircraft | A35K/H-SDE2E3GHIJ3J4J5LM1ORWXY/LB1D1 |
Departure
| Time | N/A |
|---|---|
| Airport | Jomo Kenyatta International Airport (HKJK) |
Arrival
| Time | 2026-05-01 15:31 |
|---|---|
| Airport | London Heathrow Airport (EGLL) |
| Time | Latitude | Longitude | Altitude | Speed | Heading |
|---|---|---|---|---|---|
| 2026-05-01 07:23 | -0.37431 | 33.10337 | 36101 ft | 506 kts | 278° |
| 2026-05-01 07:24 | -0.35886 | 32.99924 | 36100 ft | 506 kts | 278° |
| 2026-05-01 07:24 | -0.34854 | 32.92974 | 36100 ft | 507 kts | 278° |
| 2026-05-01 07:25 | -0.33823 | 32.86028 | 36100 ft | 506 kts | 278° |
| 2026-05-01 07:25 | -0.32792 | 32.79081 | 36099 ft | 507 kts | 278° |
| 2026-05-01 07:26 | -0.31759 | 32.72123 | 36099 ft | 507 kts | 278° |
| 2026-05-01 07:26 | -0.30727 | 32.65172 | 36100 ft | 507 kts | 278° |
| 2026-05-01 07:27 | -0.29693 | 32.58212 | 36102 ft | 508 kts | 278° |
| 2026-05-01 07:27 | -0.28658 | 32.51238 | 36101 ft | 509 kts | 278° |
| 2026-05-01 07:28 | -0.27622 | 32.44257 | 36099 ft | 509 kts | 278° |
| 2026-05-01 07:28 | -0.26584 | 32.37280 | 36100 ft | 509 kts | 278° |
| 2026-05-01 07:29 | -0.24608 | 32.30528 | 36106 ft | 509 kts | 295° |
| 2026-05-01 07:29 | -0.21045 | 32.24435 | 36103 ft | 510 kts | 303° |
| 2026-05-01 07:30 | -0.17146 | 32.18537 | 36103 ft | 510 kts | 304° |
| 2026-05-01 07:30 | -0.13181 | 32.12626 | 36102 ft | 510 kts | 304° |
| 2026-05-01 07:31 | -0.09268 | 32.06743 | 36099 ft | 510 kts | 304° |
| 2026-05-01 07:32 | 0.00513 | 31.92004 | 36098 ft | 510 kts | 304° |
| 2026-05-01 07:33 | 0.06496 | 31.83278 | 36100 ft | 508 kts | 311° |
| 2026-05-01 07:33 | 0.14945 | 31.77212 | 36105 ft | 503 kts | 341° |
| 2026-05-01 07:34 | 0.24928 | 31.74115 | 36105 ft | 505 kts | 338° |
| 2026-05-01 07:35 | 0.31332 | 31.71260 | 36107 ft | 505 kts | 336° |
| 2026-05-01 07:35 | 0.37667 | 31.68240 | 36106 ft | 506 kts | 335° |
| 2026-05-01 07:36 | 0.43994 | 31.65177 | 36107 ft | 506 kts | 335° |
| 2026-05-01 07:36 | 0.50323 | 31.62121 | 36106 ft | 506 kts | 335° |
| 2026-05-01 07:37 | 0.59828 | 31.57551 | 36108 ft | 506 kts | 336° |
| 2026-05-01 07:37 | 0.65756 | 31.53786 | 36097 ft | 509 kts | 321° |
| 2026-05-01 07:38 | 0.70495 | 31.48533 | 36108 ft | 512 kts | 307° |
| 2026-05-01 07:39 | 0.76418 | 31.39661 | 36106 ft | 513 kts | 304° |
| 2026-05-01 07:39 | 0.82318 | 31.30769 | 36101 ft | 513 kts | 305° |
| 2026-05-01 07:40 | 0.86320 | 31.24890 | 36097 ft | 513 kts | 305° |
| 2026-05-01 07:40 | 0.90331 | 31.19027 | 36097 ft | 511 kts | 305° |
| 2026-05-01 07:41 | 0.94331 | 31.13176 | 36088 ft | 511 kts | 305° |
| 2026-05-01 07:42 | 1.00328 | 31.04396 | 36087 ft | 511 kts | 305° |
| 2026-05-01 07:42 | 1.04321 | 30.98546 | 36086 ft | 510 kts | 305° |
| 2026-05-01 07:43 | 1.08310 | 30.92702 | 36075 ft | 510 kts | 305° |
| 2026-05-01 07:43 | 1.14298 | 30.83930 | 36074 ft | 510 kts | 304° |
| 2026-05-01 07:44 | 1.22281 | 30.72234 | 36059 ft | 510 kts | 304° |
| 2026-05-01 07:45 | 1.26271 | 30.66387 | 36057 ft | 510 kts | 304° |
| 2026-05-01 07:45 | 1.30292 | 30.60559 | 36052 ft | 510 kts | 305° |
| 2026-05-01 07:46 | 1.34360 | 30.54770 | 36052 ft | 509 kts | 305° |
| 2026-05-01 07:47 | 1.40434 | 30.46119 | 36056 ft | 508 kts | 305° |
| 2026-05-01 07:47 | 1.44472 | 30.40347 | 36057 ft | 508 kts | 305° |
| 2026-05-01 07:48 | 1.50542 | 30.31667 | 36072 ft | 510 kts | 305° |
| 2026-05-01 07:48 | 1.54595 | 30.25873 | 36072 ft | 509 kts | 305° |
| 2026-05-01 07:49 | 1.61257 | 30.17663 | 36076 ft | 509 kts | 311° |
| 2026-05-01 07:50 | 1.65918 | 30.12350 | 36068 ft | 510 kts | 312° |
| 2026-05-01 07:50 | 1.72914 | 30.04413 | 36067 ft | 507 kts | 311° |
| 2026-05-01 07:51 | 1.77562 | 29.99124 | 36066 ft | 507 kts | 311° |
| 2026-05-01 07:52 | 1.84528 | 29.91189 | 36062 ft | 507 kts | 311° |
| 2026-05-01 07:52 | 1.89171 | 29.85898 | 36064 ft | 507 kts | 311° |
| 2026-05-01 07:53 | 1.96177 | 29.77992 | 36055 ft | 508 kts | 312° |
| 2026-05-01 07:53 | 2.00903 | 29.72760 | 36057 ft | 508 kts | 313° |
| 2026-05-01 07:55 | 2.12699 | 29.59706 | 36056 ft | 507 kts | 313° |
| 2026-05-01 07:56 | 2.24484 | 29.46639 | 36051 ft | 507 kts | 312° |
| 2026-05-01 07:57 | 2.31566 | 29.38803 | 36051 ft | 508 kts | 312° |
| 2026-05-01 07:58 | 2.40987 | 29.28377 | 36043 ft | 505 kts | 312° |
| 2026-05-01 07:59 | 2.50420 | 29.17934 | 36040 ft | 507 kts | 312° |
| 2026-05-01 08:00 | 2.64590 | 29.02244 | 36034 ft | 508 kts | 312° |
| 2026-05-01 08:01 | 2.74019 | 28.91800 | 36031 ft | 507 kts | 312° |
| 2026-05-01 08:02 | 2.81088 | 28.83970 | 36026 ft | 506 kts | 312° |
| 2026-05-01 08:03 | 2.88138 | 28.76158 | 36023 ft | 505 kts | 312° |
| 2026-05-01 08:03 | 2.95209 | 28.68318 | 36022 ft | 507 kts | 312° |
| 2026-05-01 08:04 | 3.04647 | 28.57863 | 36022 ft | 509 kts | 312° |
| 2026-05-01 08:05 | 3.11751 | 28.49989 | 36020 ft | 508 kts | 312° |
| 2026-05-01 08:06 | 3.18828 | 28.42141 | 36018 ft | 507 kts | 312° |
| 2026-05-01 08:07 | 3.28266 | 28.31674 | 36019 ft | 506 kts | 312° |
| 2026-05-01 08:08 | 3.35331 | 28.23835 | 36021 ft | 506 kts | 312° |
| 2026-05-01 08:09 | 3.44761 | 28.13370 | 36017 ft | 506 kts | 312° |
| 2026-05-01 08:09 | 3.49474 | 28.08140 | 36017 ft | 507 kts | 312° |
| 2026-05-01 08:10 | 3.58922 | 27.97651 | 36014 ft | 508 kts | 312° |
| 2026-05-01 08:11 | 3.68350 | 27.87181 | 36013 ft | 508 kts | 312° |
| 2026-05-01 08:12 | 3.75417 | 27.79330 | 36013 ft | 505 kts | 312° |
| 2026-05-01 08:13 | 3.82453 | 27.71512 | 36011 ft | 506 kts | 312° |
| 2026-05-01 08:13 | 3.89509 | 27.63669 | 36013 ft | 506 kts | 312° |
| 2026-05-01 08:14 | 3.94206 | 27.58447 | 36015 ft | 506 kts | 313° |
| 2026-05-01 08:14 | 3.98916 | 27.53210 | 36016 ft | 507 kts | 312° |
| 2026-05-01 08:15 | 4.05972 | 27.45362 | 36010 ft | 508 kts | 313° |
| 2026-05-01 08:16 | 4.10688 | 27.40116 | 36016 ft | 507 kts | 312° |
| 2026-05-01 08:16 | 4.15396 | 27.34878 | 36016 ft | 507 kts | 313° |
| 2026-05-01 08:17 | 4.20104 | 27.29639 | 36017 ft | 507 kts | 312° |
| 2026-05-01 08:17 | 4.24806 | 27.24405 | 36013 ft | 506 kts | 312° |
| 2026-05-01 08:18 | 4.29501 | 27.19178 | 36013 ft | 506 kts | 313° |
| 2026-05-01 08:19 | 4.38921 | 27.08686 | 36008 ft | 508 kts | 312° |
| 2026-05-01 08:19 | 4.43633 | 27.03438 | 36007 ft | 507 kts | 313° |
| 2026-05-01 08:20 | 4.48350 | 26.98182 | 36011 ft | 509 kts | 313° |
| 2026-05-01 08:20 | 4.53075 | 26.92917 | 36008 ft | 509 kts | 312° |
| 2026-05-01 08:21 | 4.57791 | 26.87660 | 36008 ft | 508 kts | 312° |
| 2026-05-01 08:21 | 4.62498 | 26.82411 | 36002 ft | 507 kts | 313° |
| 2026-05-01 08:22 | 4.67210 | 26.77158 | 36000 ft | 508 kts | 312° |
| 2026-05-01 08:22 | 4.71913 | 26.71911 | 36002 ft | 507 kts | 312° |
| 2026-05-01 08:23 | 4.76616 | 26.66663 | 36002 ft | 507 kts | 312° |
| 2026-05-01 08:23 | 4.81309 | 26.61426 | 36004 ft | 506 kts | 313° |
| 2026-05-01 08:24 | 4.86016 | 26.56174 | 36008 ft | 508 kts | 312° |
| 2026-05-01 08:24 | 4.90724 | 26.50918 | 36000 ft | 507 kts | 313° |
| 2026-05-01 08:25 | 4.95437 | 26.45655 | 36001 ft | 508 kts | 313° |
| 2026-05-01 08:25 | 5.00162 | 26.40377 | 36002 ft | 510 kts | 313° |
| 2026-05-01 08:26 | 5.04893 | 26.35092 | 36000 ft | 510 kts | 312° |
| 2026-05-01 08:26 | 5.09612 | 26.29818 | 36000 ft | 508 kts | 312° |
| 2026-05-01 08:27 | 5.14324 | 26.24552 | 35999 ft | 509 kts | 313° |
| 2026-05-01 08:27 | 5.19044 | 26.19276 | 36000 ft | 509 kts | 312° |
| 2026-05-01 08:28 | 5.23751 | 26.14012 | 35994 ft | 507 kts | 312° |
| 2026-05-01 08:28 | 5.28449 | 26.08761 | 35993 ft | 507 kts | 313° |
| 2026-05-01 08:29 | 5.33167 | 26.03505 | 35992 ft | 508 kts | 313° |
| 2026-05-01 08:29 | 5.37895 | 25.98238 | 35999 ft | 509 kts | 312° |
| 2026-05-01 08:30 | 5.42614 | 25.92979 | 35995 ft | 507 kts | 313° |
| 2026-05-01 08:30 | 5.47337 | 25.87712 | 35994 ft | 509 kts | 313° |
| 2026-05-01 08:31 | 5.52055 | 25.82448 | 35997 ft | 507 kts | 313° |
| 2026-05-01 08:31 | 5.56758 | 25.77199 | 35995 ft | 507 kts | 313° |
| 2026-05-01 08:32 | 5.61458 | 25.71954 | 35996 ft | 505 kts | 313° |
| 2026-05-01 08:32 | 5.66153 | 25.66711 | 35997 ft | 506 kts | 313° |
| 2026-05-01 08:33 | 5.70847 | 25.61469 | 35996 ft | 506 kts | 313° |
| 2026-05-01 08:33 | 5.75536 | 25.56232 | 35999 ft | 504 kts | 313° |
| 2026-05-01 08:34 | 5.80214 | 25.51006 | 35999 ft | 504 kts | 313° |
| 2026-05-01 08:34 | 5.84898 | 25.45771 | 35998 ft | 506 kts | 313° |
| 2026-05-01 08:35 | 5.89599 | 25.40517 | 35999 ft | 507 kts | 312° |
| 2026-05-01 08:35 | 5.94295 | 25.35265 | 35997 ft | 506 kts | 312° |
| 2026-05-01 08:36 | 5.98987 | 25.30016 | 35999 ft | 505 kts | 312° |
| 2026-05-01 08:36 | 6.03665 | 25.24785 | 35996 ft | 503 kts | 312° |
| 2026-05-01 08:37 | 6.08327 | 25.19570 | 35999 ft | 502 kts | 312° |
| 2026-05-01 08:37 | 6.12980 | 25.14357 | 35996 ft | 502 kts | 312° |
| 2026-05-01 08:38 | 6.17635 | 25.09141 | 35999 ft | 502 kts | 312° |
| 2026-05-01 08:38 | 6.22293 | 25.03924 | 36002 ft | 502 kts | 312° |
| 2026-05-01 08:39 | 6.26938 | 24.98705 | 36001 ft | 501 kts | 311° |
| 2026-05-01 08:39 | 6.31563 | 24.93489 | 35998 ft | 500 kts | 311° |
| 2026-05-01 08:40 | 6.38510 | 24.85683 | 35997 ft | 500 kts | 311° |
| 2026-05-01 08:40 | 6.43146 | 24.80483 | 35997 ft | 500 kts | 311° |
| 2026-05-01 08:41 | 6.47780 | 24.75285 | 35997 ft | 500 kts | 311° |
| 2026-05-01 08:41 | 6.52416 | 24.70083 | 35993 ft | 501 kts | 311° |
| 2026-05-01 08:42 | 6.57054 | 24.64877 | 35992 ft | 501 kts | 311° |
| 2026-05-01 08:42 | 6.61689 | 24.59672 | 35994 ft | 500 kts | 311° |
| 2026-05-01 08:43 | 6.66324 | 24.54465 | 35996 ft | 500 kts | 311° |
| 2026-05-01 08:43 | 6.70955 | 24.49262 | 35997 ft | 500 kts | 311° |
| 2026-05-01 08:44 | 6.75586 | 24.44057 | 35991 ft | 500 kts | 311° |
| 2026-05-01 08:44 | 6.80246 | 24.38818 | 35993 ft | 500 kts | 311° |
| 2026-05-01 08:45 | 6.84852 | 24.33638 | 35994 ft | 502 kts | 311° |
| 2026-05-01 08:45 | 6.89503 | 24.28405 | 35997 ft | 503 kts | 311° |
| 2026-05-01 08:46 | 6.94157 | 24.23167 | 35996 ft | 503 kts | 311° |
| 2026-05-01 08:46 | 6.98803 | 24.17938 | 35996 ft | 501 kts | 311° |
| 2026-05-01 08:47 | 7.03442 | 24.12713 | 35997 ft | 501 kts | 311° |
| 2026-05-01 08:47 | 7.08113 | 24.07452 | 36000 ft | 502 kts | 311° |
| 2026-05-01 08:48 | 7.12723 | 24.02255 | 35999 ft | 502 kts | 311° |
| 2026-05-01 08:48 | 7.17400 | 23.96984 | 35999 ft | 503 kts | 311° |
| 2026-05-01 08:49 | 7.22049 | 23.91743 | 36000 ft | 503 kts | 311° |
| 2026-05-01 08:49 | 7.26697 | 23.86500 | 36000 ft | 503 kts | 311° |
| 2026-05-01 08:50 | 7.31345 | 23.81256 | 36000 ft | 502 kts | 311° |
| 2026-05-01 08:50 | 7.35981 | 23.76023 | 35997 ft | 501 kts | 311° |
| 2026-05-01 08:51 | 7.40613 | 23.70793 | 35997 ft | 502 kts | 311° |
| 2026-05-01 08:51 | 7.45253 | 23.65552 | 35998 ft | 503 kts | 311° |
| 2026-05-01 08:52 | 7.49895 | 23.60308 | 35999 ft | 502 kts | 311° |
| 2026-05-01 08:52 | 7.54535 | 23.55061 | 35997 ft | 502 kts | 311° |
| 2026-05-01 08:53 | 7.59176 | 23.49812 | 36003 ft | 503 kts | 311° |
| 2026-05-01 08:53 | 7.63818 | 23.44561 | 35997 ft | 503 kts | 311° |
| 2026-05-01 08:54 | 7.68460 | 23.39308 | 36002 ft | 502 kts | 311° |
| 2026-05-01 08:54 | 7.73093 | 23.34063 | 35999 ft | 501 kts | 311° |
| 2026-05-01 08:55 | 7.77721 | 23.28823 | 35994 ft | 501 kts | 311° |
| 2026-05-01 08:55 | 7.82349 | 23.23580 | 35998 ft | 502 kts | 311° |
| 2026-05-01 08:56 | 7.86976 | 23.18337 | 35996 ft | 501 kts | 311° |
| 2026-05-01 08:56 | 7.91600 | 23.13094 | 35995 ft | 501 kts | 311° |
| 2026-05-01 08:57 | 7.96223 | 23.07851 | 35999 ft | 501 kts | 311° |
| 2026-05-01 08:57 | 8.00848 | 23.02604 | 35999 ft | 502 kts | 311° |
| 2026-05-01 08:58 | 8.05473 | 22.97355 | 35999 ft | 501 kts | 311° |
| 2026-05-01 08:58 | 8.10082 | 22.92124 | 35996 ft | 499 kts | 311° |
| 2026-05-01 08:59 | 8.14685 | 22.86900 | 36007 ft | 499 kts | 311° |
| 2026-05-01 08:59 | 8.19697 | 22.82075 | 36005 ft | 499 kts | 317° |
| 2026-05-01 09:00 | 8.24878 | 22.77434 | 35998 ft | 499 kts | 318° |
| 2026-05-01 09:00 | 8.30092 | 22.72818 | 36004 ft | 500 kts | 318° |
| 2026-05-01 09:01 | 8.35303 | 22.68197 | 36003 ft | 500 kts | 318° |
| 2026-05-01 09:01 | 8.40508 | 22.63569 | 35997 ft | 499 kts | 318° |
| 2026-05-01 09:02 | 8.45696 | 22.58948 | 35997 ft | 497 kts | 318° |
| 2026-05-01 09:02 | 8.50873 | 22.54336 | 35992 ft | 497 kts | 318° |
| 2026-05-01 09:03 | 8.56050 | 22.49723 | 35992 ft | 497 kts | 318° |
| 2026-05-01 09:03 | 8.61230 | 22.45104 | 35990 ft | 497 kts | 318° |
| 2026-05-01 09:04 | 8.66405 | 22.40489 | 35983 ft | 497 kts | 318° |
| 2026-05-01 09:04 | 8.71580 | 22.35872 | 35980 ft | 497 kts | 318° |
| 2026-05-01 09:05 | 8.76755 | 22.31254 | 35974 ft | 497 kts | 318° |
| 2026-05-01 09:05 | 8.81921 | 22.26642 | 35971 ft | 495 kts | 318° |
| 2026-05-01 09:06 | 8.87075 | 22.22038 | 35967 ft | 495 kts | 318° |
| 2026-05-01 09:06 | 8.92224 | 22.17437 | 35961 ft | 495 kts | 318° |
| 2026-05-01 09:07 | 8.97367 | 22.12840 | 35961 ft | 494 kts | 318° |
| 2026-05-01 09:07 | 9.02503 | 22.08247 | 35964 ft | 495 kts | 319° |
| 2026-05-01 09:08 | 9.07645 | 22.03647 | 35963 ft | 495 kts | 318° |
| 2026-05-01 09:08 | 9.12793 | 21.99040 | 35963 ft | 495 kts | 319° |
| 2026-05-01 09:09 | 9.17945 | 21.94427 | 35960 ft | 497 kts | 319° |
| 2026-05-01 09:09 | 9.23109 | 21.89802 | 35956 ft | 497 kts | 319° |
| 2026-05-01 09:10 | 9.28276 | 21.85173 | 35956 ft | 497 kts | 319° |
| 2026-05-01 09:10 | 9.33444 | 21.80540 | 35955 ft | 497 kts | 319° |
| 2026-05-01 09:11 | 9.38616 | 21.75902 | 35953 ft | 498 kts | 319° |
| 2026-05-01 09:11 | 9.43779 | 21.71263 | 35953 ft | 497 kts | 318° |
| 2026-05-01 09:12 | 9.48933 | 21.66615 | 35951 ft | 497 kts | 319° |
| 2026-05-01 09:12 | 9.54098 | 21.61985 | 35950 ft | 497 kts | 320° |
| 2026-05-01 09:13 | 9.59331 | 21.57414 | 35953 ft | 498 kts | 320° |
| 2026-05-01 09:13 | 9.64592 | 21.52872 | 35948 ft | 498 kts | 320° |
| 2026-05-01 09:14 | 9.69844 | 21.48319 | 35948 ft | 498 kts | 320° |
| 2026-05-01 09:14 | 9.75089 | 21.43755 | 35945 ft | 497 kts | 320° |
| 2026-05-01 09:15 | 9.80329 | 21.39198 | 35945 ft | 498 kts | 320° |
| 2026-05-01 09:15 | 9.85571 | 21.34634 | 35945 ft | 498 kts | 320° |
| 2026-05-01 09:16 | 9.90816 | 21.30060 | 35940 ft | 498 kts | 321° |
| 2026-05-01 09:17 | 9.98679 | 21.23197 | 35942 ft | 498 kts | 320° |
| 2026-05-01 09:17 | 10.06538 | 21.16336 | 35942 ft | 498 kts | 320° |
| 2026-05-01 09:18 | 10.14408 | 21.09462 | 35934 ft | 499 kts | 320° |
| 2026-05-01 09:19 | 10.22284 | 21.02574 | 35936 ft | 499 kts | 321° |
| 2026-05-01 09:20 | 10.30156 | 20.95686 | 35934 ft | 499 kts | 320° |
| 2026-05-01 09:21 | 10.40654 | 20.86495 | 35932 ft | 499 kts | 320° |
| 2026-05-01 09:21 | 10.48526 | 20.79596 | 35933 ft | 499 kts | 320° |
| 2026-05-01 09:22 | 10.58965 | 20.70291 | 35931 ft | 500 kts | 320° |
| 2026-05-01 09:23 | 10.66905 | 20.63427 | 35930 ft | 501 kts | 320° |
| 2026-05-01 09:24 | 10.74816 | 20.56519 | 35931 ft | 501 kts | 320° |
| 2026-05-01 09:25 | 10.85335 | 20.47269 | 35931 ft | 501 kts | 320° |
| 2026-05-01 09:26 | 10.93227 | 20.40324 | 35926 ft | 501 kts | 320° |
| 2026-05-01 09:26 | 11.01123 | 20.33371 | 35928 ft | 501 kts | 320° |
| 2026-05-01 09:27 | 11.09016 | 20.26416 | 35923 ft | 501 kts | 320° |
| 2026-05-01 09:28 | 11.14273 | 20.21782 | 35925 ft | 501 kts | 320° |
| 2026-05-01 09:28 | 11.19529 | 20.17145 | 35922 ft | 501 kts | 320° |
| 2026-05-01 09:29 | 11.27413 | 20.10186 | 35923 ft | 501 kts | 320° |
| 2026-05-01 09:30 | 11.35301 | 20.03219 | 35926 ft | 501 kts | 320° |
| 2026-05-01 09:30 | 11.43182 | 19.96251 | 35924 ft | 501 kts | 320° |
| 2026-05-01 09:31 | 11.48435 | 19.91605 | 35924 ft | 501 kts | 319° |
| 2026-05-01 09:32 | 11.56316 | 19.84628 | 35920 ft | 501 kts | 320° |
| 2026-05-01 09:32 | 11.64198 | 19.77647 | 35920 ft | 502 kts | 319° |
| 2026-05-01 09:33 | 11.69440 | 19.72964 | 35922 ft | 502 kts | 319° |
| 2026-05-01 09:34 | 11.77269 | 19.65909 | 35925 ft | 501 kts | 319° |
| 2026-05-01 09:34 | 11.85098 | 19.58862 | 35922 ft | 501 kts | 319° |
| 2026-05-01 09:35 | 11.92927 | 19.51818 | 35925 ft | 501 kts | 319° |
| 2026-05-01 09:36 | 11.98145 | 19.47121 | 35925 ft | 501 kts | 319° |
| 2026-05-01 09:36 | 12.03364 | 19.42419 | 35922 ft | 502 kts | 319° |
| 2026-05-01 09:37 | 12.08592 | 19.37708 | 35930 ft | 502 kts | 319° |
| 2026-05-01 09:37 | 12.16433 | 19.30635 | 35924 ft | 502 kts | 319° |
| 2026-05-01 09:38 | 12.24262 | 19.23566 | 35924 ft | 502 kts | 319° |
| 2026-05-01 09:39 | 12.32092 | 19.16492 | 35922 ft | 502 kts | 319° |
| 2026-05-01 09:39 | 12.37315 | 19.11770 | 35916 ft | 502 kts | 319° |
| 2026-05-01 09:40 | 12.45162 | 19.04671 | 35921 ft | 503 kts | 318° |
| 2026-05-01 09:41 | 12.50387 | 18.99941 | 35919 ft | 502 kts | 318° |
| 2026-05-01 09:41 | 12.58208 | 18.92855 | 35916 ft | 502 kts | 318° |
| 2026-05-01 09:42 | 12.63424 | 18.88126 | 35917 ft | 502 kts | 318° |
| 2026-05-01 09:43 | 12.73857 | 18.78657 | 35912 ft | 502 kts | 318° |
| 2026-05-01 09:43 | 12.79074 | 18.73919 | 35911 ft | 502 kts | 318° |
| 2026-05-01 09:44 | 12.86893 | 18.66813 | 35914 ft | 502 kts | 318° |
| 2026-05-01 09:45 | 12.92103 | 18.62074 | 35914 ft | 502 kts | 318° |
| 2026-05-01 09:45 | 12.99921 | 18.54957 | 35913 ft | 502 kts | 318° |
| 2026-05-01 09:46 | 13.05129 | 18.50213 | 35913 ft | 502 kts | 318° |
| 2026-05-01 09:46 | 13.10332 | 18.45471 | 35917 ft | 501 kts | 318° |
| 2026-05-01 09:47 | 13.15538 | 18.40723 | 35912 ft | 502 kts | 318° |
| 2026-05-01 09:47 | 13.20750 | 18.35968 | 35915 ft | 503 kts | 318° |
| 2026-05-01 09:48 | 13.25971 | 18.31197 | 35914 ft | 503 kts | 318° |
| 2026-05-01 09:48 | 13.31186 | 18.26431 | 35914 ft | 503 kts | 318° |
| 2026-05-01 09:49 | 13.36396 | 18.21668 | 35913 ft | 502 kts | 318° |
| 2026-05-01 09:49 | 13.41606 | 18.16902 | 36179 ft | 501 kts | 318° |
| 2026-05-01 09:50 | 13.44192 | 18.14538 | 36634 ft | 497 kts | 318° |
| 2026-05-01 09:50 | 13.46766 | 18.12185 | 36946 ft | 496 kts | 318° |
| 2026-05-01 09:50 | 13.49337 | 18.09831 | 37254 ft | 495 kts | 318° |
| 2026-05-01 09:50 | 13.51897 | 18.07485 | 37560 ft | 494 kts | 318° |
| 2026-05-01 09:51 | 13.54454 | 18.05141 | 37859 ft | 493 kts | 318° |
| 2026-05-01 09:51 | 13.57014 | 18.02794 | 37913 ft | 496 kts | 318° |
| 2026-05-01 09:51 | 13.62153 | 17.98080 | 37913 ft | 496 kts | 318° |
| 2026-05-01 09:52 | 13.67288 | 17.93369 | 37910 ft | 496 kts | 318° |
| 2026-05-01 09:52 | 13.72423 | 17.88655 | 37912 ft | 496 kts | 318° |
| 2026-05-01 09:53 | 13.77558 | 17.83938 | 37908 ft | 496 kts | 318° |
| 2026-05-01 09:53 | 13.82693 | 17.79218 | 37909 ft | 496 kts | 318° |
| 2026-05-01 09:54 | 13.87827 | 17.74496 | 37911 ft | 496 kts | 318° |
| 2026-05-01 09:54 | 13.92959 | 17.69773 | 37905 ft | 496 kts | 318° |
| 2026-05-01 09:55 | 13.98094 | 17.65044 | 37905 ft | 497 kts | 318° |
| 2026-05-01 09:55 | 14.03232 | 17.60310 | 37906 ft | 497 kts | 318° |
| 2026-05-01 09:56 | 14.08371 | 17.55572 | 37907 ft | 497 kts | 318° |
| 2026-05-01 09:56 | 14.13506 | 17.50834 | 37906 ft | 496 kts | 318° |
| 2026-05-01 09:57 | 14.18638 | 17.46096 | 37909 ft | 496 kts | 318° |
| 2026-05-01 09:57 | 14.23765 | 17.41360 | 37923 ft | 496 kts | 318° |
| 2026-05-01 09:58 | 14.28894 | 17.36619 | 37910 ft | 496 kts | 317° |
| 2026-05-01 09:58 | 14.34014 | 17.31883 | 37911 ft | 495 kts | 317° |
| 2026-05-01 09:59 | 14.39129 | 17.27149 | 37915 ft | 495 kts | 317° |
| 2026-05-01 09:59 | 14.44240 | 17.22415 | 37917 ft | 495 kts | 318° |
| 2026-05-01 10:00 | 14.49348 | 17.17681 | 37917 ft | 495 kts | 317° |
| 2026-05-01 10:00 | 14.54458 | 17.12943 | 37918 ft | 495 kts | 317° |
| 2026-05-01 10:01 | 14.59564 | 17.08204 | 37922 ft | 495 kts | 317° |
| 2026-05-01 10:01 | 14.64675 | 17.03459 | 37939 ft | 495 kts | 317° |
| 2026-05-01 10:02 | 14.69774 | 16.98722 | 37922 ft | 493 kts | 317° |
| 2026-05-01 10:02 | 14.74887 | 16.93967 | 37945 ft | 492 kts | 317° |
| 2026-05-01 10:03 | 14.79933 | 16.89270 | 37927 ft | 492 kts | 317° |
| 2026-05-01 10:03 | 14.85043 | 16.84512 | 37925 ft | 492 kts | 317° |
| 2026-05-01 10:04 | 14.90117 | 16.79784 | 37948 ft | 492 kts | 317° |
| 2026-05-01 10:04 | 14.95189 | 16.75055 | 37931 ft | 492 kts | 317° |
| 2026-05-01 10:05 | 15.00262 | 16.70322 | 37932 ft | 492 kts | 317° |
| 2026-05-01 10:05 | 15.05332 | 16.65590 | 37941 ft | 492 kts | 316° |
| 2026-05-01 10:06 | 15.10389 | 16.60865 | 37938 ft | 490 kts | 316° |
| 2026-05-01 10:06 | 15.15440 | 16.56143 | 37939 ft | 490 kts | 316° |
| 2026-05-01 10:07 | 15.20488 | 16.51420 | 37940 ft | 490 kts | 316° |
| 2026-05-01 10:07 | 15.25535 | 16.46694 | 37944 ft | 490 kts | 316° |
| 2026-05-01 10:08 | 15.33105 | 16.39601 | 37942 ft | 491 kts | 317° |
| 2026-05-01 10:09 | 15.38159 | 16.34863 | 37948 ft | 490 kts | 316° |
| 2026-05-01 10:09 | 15.43205 | 16.30129 | 37944 ft | 490 kts | 316° |
| 2026-05-01 10:10 | 15.48242 | 16.25399 | 37946 ft | 489 kts | 316° |
| 2026-05-01 10:10 | 15.55799 | 16.18297 | 37946 ft | 490 kts | 316° |
| 2026-05-01 10:11 | 15.60836 | 16.13559 | 37948 ft | 490 kts | 316° |
| 2026-05-01 10:11 | 15.65874 | 16.08817 | 37946 ft | 490 kts | 316° |
| 2026-05-01 10:12 | 15.70069 | 16.04866 | 37944 ft | 490 kts | 316° |
| 2026-05-01 10:13 | 15.78451 | 15.96964 | 37943 ft | 488 kts | 316° |
| 2026-05-01 10:13 | 15.83464 | 15.92234 | 37947 ft | 488 kts | 316° |
| 2026-05-01 10:14 | 15.90977 | 15.85138 | 37945 ft | 488 kts | 316° |
| 2026-05-01 10:14 | 15.95989 | 15.80401 | 37944 ft | 488 kts | 316° |
| 2026-05-01 10:15 | 16.00995 | 15.75666 | 37944 ft | 488 kts | 316° |
| 2026-05-01 10:15 | 16.05999 | 15.70929 | 37944 ft | 488 kts | 316° |
| 2026-05-01 10:16 | 16.11003 | 15.66189 | 37947 ft | 488 kts | 316° |
| 2026-05-01 10:17 | 16.18495 | 15.59086 | 37947 ft | 486 kts | 316° |
| 2026-05-01 10:17 | 16.25969 | 15.51992 | 37944 ft | 486 kts | 316° |
| 2026-05-01 10:18 | 16.33444 | 15.44890 | 37949 ft | 486 kts | 316° |
| 2026-05-01 10:19 | 16.38426 | 15.40153 | 37948 ft | 486 kts | 316° |
| 2026-05-01 10:19 | 16.43403 | 15.35416 | 37947 ft | 486 kts | 316° |
| 2026-05-01 10:20 | 16.50870 | 15.28303 | 37945 ft | 485 kts | 315° |
| 2026-05-01 10:20 | 16.55830 | 15.23575 | 37946 ft | 484 kts | 315° |
| 2026-05-01 10:21 | 16.63258 | 15.16486 | 37950 ft | 484 kts | 315° |
| 2026-05-01 10:22 | 16.70683 | 15.09393 | 37947 ft | 484 kts | 315° |
| 2026-05-01 10:23 | 16.78104 | 15.02296 | 37949 ft | 484 kts | 315° |
| 2026-05-01 10:23 | 16.85525 | 14.95191 | 37955 ft | 483 kts | 315° |
| 2026-05-01 10:24 | 16.95376 | 14.85747 | 37947 ft | 481 kts | 315° |
| 2026-05-01 10:25 | 17.05211 | 14.76304 | 37947 ft | 481 kts | 315° |
| 2026-05-01 10:26 | 17.10128 | 14.71577 | 37947 ft | 481 kts | 315° |
| 2026-05-01 10:27 | 17.19957 | 14.62121 | 37945 ft | 481 kts | 315° |
| 2026-05-01 10:28 | 17.27307 | 14.55039 | 37950 ft | 479 kts | 315° |
| 2026-05-01 10:28 | 17.34645 | 14.47966 | 37949 ft | 479 kts | 315° |
| 2026-05-01 10:29 | 17.41970 | 14.40887 | 37950 ft | 479 kts | 315° |
| 2026-05-01 10:30 | 17.51739 | 14.31437 | 37952 ft | 479 kts | 315° |
| 2026-05-01 10:31 | 17.61499 | 14.21983 | 37954 ft | 479 kts | 315° |
| 2026-05-01 10:32 | 17.68819 | 14.14884 | 37955 ft | 479 kts | 315° |
| 2026-05-01 10:33 | 17.78575 | 14.05408 | 37956 ft | 479 kts | 315° |
| 2026-05-01 10:34 | 17.85891 | 13.98295 | 37955 ft | 479 kts | 314° |
| 2026-05-01 10:34 | 17.90763 | 13.93551 | 37955 ft | 479 kts | 314° |
| 2026-05-01 10:35 | 17.98066 | 13.86434 | 37954 ft | 478 kts | 314° |
| 2026-05-01 10:35 | 18.02928 | 13.81691 | 37954 ft | 479 kts | 314° |
| 2026-05-01 10:36 | 18.10230 | 13.74559 | 37955 ft | 479 kts | 314° |
| 2026-05-01 10:37 | 18.15098 | 13.69802 | 37956 ft | 479 kts | 314° |
| 2026-05-01 10:37 | 18.22398 | 13.62659 | 37951 ft | 479 kts | 314° |
| 2026-05-01 10:38 | 18.27265 | 13.57893 | 37953 ft | 479 kts | 314° |
| 2026-05-01 10:38 | 18.32125 | 13.53131 | 37957 ft | 477 kts | 313° |
| 2026-05-01 10:39 | 18.36962 | 13.48387 | 37953 ft | 476 kts | 313° |
| 2026-05-01 10:39 | 18.41799 | 13.43637 | 37954 ft | 477 kts | 313° |
| 2026-05-01 10:40 | 18.46638 | 13.38881 | 37952 ft | 477 kts | 313° |
| 2026-05-01 10:40 | 18.51478 | 13.34122 | 37952 ft | 477 kts | 313° |
| 2026-05-01 10:41 | 18.56315 | 13.29362 | 37952 ft | 477 kts | 313° |
| 2026-05-01 10:42 | 18.63569 | 13.22217 | 37952 ft | 477 kts | 313° |
| 2026-05-01 10:42 | 18.68397 | 13.17457 | 37948 ft | 475 kts | 313° |
| 2026-05-01 10:43 | 18.73208 | 13.12709 | 37944 ft | 474 kts | 313° |
| 2026-05-01 10:43 | 18.78012 | 13.07962 | 37950 ft | 474 kts | 313° |
| 2026-05-01 10:44 | 18.82819 | 13.03210 | 37949 ft | 475 kts | 313° |
| 2026-05-01 10:44 | 18.87628 | 12.98452 | 37947 ft | 475 kts | 313° |
| 2026-05-01 10:45 | 18.92431 | 12.93696 | 37947 ft | 474 kts | 313° |
| 2026-05-01 10:45 | 18.97288 | 12.88989 | 37947 ft | 477 kts | 317° |
| 2026-05-01 10:46 | 19.02808 | 12.85055 | 37950 ft | 481 kts | 323° |
| 2026-05-01 10:46 | 19.08515 | 12.81402 | 37944 ft | 480 kts | 324° |
| 2026-05-01 10:47 | 19.14248 | 12.77794 | 37948 ft | 480 kts | 324° |
| 2026-05-01 10:47 | 19.19973 | 12.74176 | 37945 ft | 481 kts | 324° |
| 2026-05-01 10:48 | 19.25697 | 12.70539 | 37945 ft | 481 kts | 324° |
| 2026-05-01 10:48 | 19.31422 | 12.66895 | 37943 ft | 481 kts | 324° |
| 2026-05-01 10:49 | 19.37146 | 12.63248 | 37960 ft | 481 kts | 323° |
| 2026-05-01 10:49 | 19.42861 | 12.59604 | 37949 ft | 480 kts | 323° |
| 2026-05-01 10:50 | 19.48572 | 12.55959 | 37949 ft | 480 kts | 323° |
| 2026-05-01 10:50 | 19.54280 | 12.52313 | 37946 ft | 480 kts | 323° |
| 2026-05-01 10:51 | 19.59984 | 12.48667 | 37946 ft | 480 kts | 323° |
| 2026-05-01 10:51 | 19.65692 | 12.45015 | 37946 ft | 480 kts | 323° |
| 2026-05-01 10:52 | 19.71396 | 12.41363 | 37953 ft | 480 kts | 323° |
| 2026-05-01 10:52 | 19.77094 | 12.37713 | 37952 ft | 479 kts | 323° |
| 2026-05-01 10:53 | 19.82781 | 12.34064 | 37949 ft | 479 kts | 323° |
| 2026-05-01 10:53 | 19.88471 | 12.30412 | 37945 ft | 479 kts | 323° |
| 2026-05-01 10:54 | 19.94159 | 12.26757 | 37950 ft | 479 kts | 323° |
| 2026-05-01 10:54 | 19.99848 | 12.23100 | 37955 ft | 479 kts | 323° |
| 2026-05-01 10:55 | 20.05535 | 12.19440 | 37971 ft | 479 kts | 323° |
| 2026-05-01 10:55 | 20.11213 | 12.15783 | 37949 ft | 478 kts | 323° |
| 2026-05-01 10:56 | 20.16882 | 12.12128 | 37958 ft | 477 kts | 323° |
| 2026-05-01 10:56 | 20.22548 | 12.08472 | 37957 ft | 477 kts | 323° |
| 2026-05-01 10:57 | 20.28214 | 12.04813 | 37948 ft | 477 kts | 323° |
| 2026-05-01 10:57 | 20.33876 | 12.01153 | 37956 ft | 477 kts | 322° |
| 2026-05-01 10:58 | 20.39538 | 11.97491 | 37979 ft | 477 kts | 322° |
| 2026-05-01 10:58 | 20.45192 | 11.93831 | 37958 ft | 476 kts | 322° |
| 2026-05-01 10:59 | 20.50836 | 11.90174 | 37957 ft | 476 kts | 322° |
| 2026-05-01 10:59 | 20.56477 | 11.86515 | 37955 ft | 475 kts | 322° |
| 2026-05-01 11:00 | 20.62118 | 11.82853 | 37953 ft | 475 kts | 322° |
| 2026-05-01 11:00 | 20.67755 | 11.79187 | 37953 ft | 475 kts | 322° |
| 2026-05-01 11:01 | 20.72453 | 11.76130 | 37952 ft | 475 kts | 322° |
| 2026-05-01 11:01 | 20.79039 | 11.71842 | 37954 ft | 474 kts | 322° |
| 2026-05-01 11:02 | 20.84636 | 11.68195 | 37955 ft | 473 kts | 322° |
| 2026-05-01 11:02 | 20.90243 | 11.64537 | 37955 ft | 472 kts | 322° |
| 2026-05-01 11:03 | 20.95837 | 11.60884 | 37955 ft | 472 kts | 322° |
| 2026-05-01 11:03 | 21.01428 | 11.57229 | 37955 ft | 472 kts | 322° |
| 2026-05-01 11:04 | 21.07018 | 11.53572 | 37955 ft | 472 kts | 322° |
| 2026-05-01 11:04 | 21.12606 | 11.49914 | 37952 ft | 472 kts | 322° |
| 2026-05-01 11:05 | 21.18201 | 11.46254 | 37952 ft | 472 kts | 322° |
| 2026-05-01 11:05 | 21.23784 | 11.42591 | 37955 ft | 472 kts | 322° |
| 2026-05-01 11:06 | 21.29371 | 11.38922 | 37955 ft | 472 kts | 322° |
| 2026-05-01 11:06 | 21.34956 | 11.35252 | 37952 ft | 472 kts | 322° |
| 2026-05-01 11:07 | 21.43331 | 11.29745 | 37969 ft | 470 kts | 321° |
| 2026-05-01 11:07 | 21.48860 | 11.26111 | 37957 ft | 465 kts | 321° |
| 2026-05-01 11:08 | 21.54350 | 11.22492 | 37960 ft | 464 kts | 321° |
| 2026-05-01 11:09 | 21.62579 | 11.17059 | 37963 ft | 464 kts | 321° |
| 2026-05-01 11:09 | 21.68064 | 11.13436 | 37960 ft | 464 kts | 321° |
| 2026-05-01 11:10 | 21.76289 | 11.07998 | 37988 ft | 464 kts | 321° |
| 2026-05-01 11:10 | 21.81759 | 11.04379 | 37960 ft | 461 kts | 321° |
| 2026-05-01 11:11 | 21.87213 | 11.00766 | 37967 ft | 461 kts | 321° |
| 2026-05-01 11:11 | 21.92662 | 10.97151 | 37966 ft | 461 kts | 321° |
| 2026-05-01 11:12 | 21.98116 | 10.93530 | 37968 ft | 461 kts | 321° |
| 2026-05-01 11:12 | 22.03565 | 10.89910 | 37969 ft | 461 kts | 321° |
| 2026-05-01 11:13 | 22.09013 | 10.86288 | 37974 ft | 461 kts | 321° |
| 2026-05-01 11:13 | 22.14461 | 10.82663 | 37974 ft | 461 kts | 320° |
| 2026-05-01 11:14 | 22.19907 | 10.79034 | 37974 ft | 461 kts | 320° |
| 2026-05-01 11:14 | 22.25350 | 10.75404 | 37984 ft | 461 kts | 320° |
| 2026-05-01 11:15 | 22.30795 | 10.71770 | 37979 ft | 461 kts | 320° |
| 2026-05-01 11:15 | 22.36239 | 10.68133 | 37979 ft | 461 kts | 320° |
| 2026-05-01 11:16 | 22.41682 | 10.64494 | 37981 ft | 461 kts | 320° |
| 2026-05-01 11:16 | 22.47125 | 10.60852 | 37984 ft | 461 kts | 320° |
| 2026-05-01 11:17 | 22.52567 | 10.57206 | 37989 ft | 461 kts | 320° |
| 2026-05-01 11:17 | 22.58008 | 10.53557 | 37990 ft | 461 kts | 320° |
| 2026-05-01 11:18 | 22.63444 | 10.49909 | 37995 ft | 461 kts | 320° |
| 2026-05-01 11:18 | 22.68960 | 10.46367 | 37994 ft | 463 kts | 321° |
| 2026-05-01 11:19 | 22.74555 | 10.42928 | 37998 ft | 463 kts | 322° |
| 2026-05-01 11:19 | 22.80145 | 10.39478 | 37999 ft | 462 kts | 321° |
| 2026-05-01 11:20 | 22.85697 | 10.36018 | 37993 ft | 461 kts | 321° |
| 2026-05-01 11:20 | 22.91237 | 10.32546 | 37994 ft | 461 kts | 321° |
| 2026-05-01 11:21 | 22.96773 | 10.29073 | 37997 ft | 461 kts | 321° |
| 2026-05-01 11:21 | 23.02307 | 10.25599 | 38000 ft | 460 kts | 321° |
| 2026-05-01 11:22 | 23.07841 | 10.22123 | 37999 ft | 461 kts | 321° |
| 2026-05-01 11:22 | 23.13376 | 10.18645 | 38006 ft | 460 kts | 320° |
| 2026-05-01 11:23 | 23.18927 | 10.15153 | 38001 ft | 458 kts | 320° |
| 2026-05-01 11:23 | 23.24396 | 10.11707 | 38001 ft | 458 kts | 320° |
| 2026-05-01 11:24 | 23.29937 | 10.08213 | 38003 ft | 458 kts | 320° |
| 2026-05-01 11:25 | 23.38194 | 10.03000 | 38003 ft | 458 kts | 320° |
| 2026-05-01 11:25 | 23.46448 | 9.97784 | 38005 ft | 458 kts | 319° |
| 2026-05-01 11:26 | 23.54683 | 9.92570 | 38007 ft | 457 kts | 319° |
| 2026-05-01 11:27 | 23.60174 | 9.89089 | 38010 ft | 457 kts | 319° |
| 2026-05-01 11:27 | 23.65662 | 9.85606 | 38010 ft | 457 kts | 319° |
| 2026-05-01 11:28 | 23.71149 | 9.82122 | 38019 ft | 457 kts | 319° |
| 2026-05-01 11:28 | 23.76642 | 9.78629 | 38038 ft | 458 kts | 319° |
| 2026-05-01 11:29 | 23.84878 | 9.73388 | 38012 ft | 458 kts | 319° |
| 2026-05-01 11:30 | 23.93110 | 9.68140 | 38026 ft | 458 kts | 319° |
| 2026-05-01 11:30 | 23.98595 | 9.64639 | 38027 ft | 457 kts | 319° |
| 2026-05-01 11:31 | 24.04080 | 9.61135 | 38056 ft | 457 kts | 319° |
| 2026-05-01 11:31 | 24.09564 | 9.57628 | 38111 ft | 458 kts | 319° |
| 2026-05-01 11:32 | 24.15042 | 9.54122 | 38122 ft | 457 kts | 319° |
| 2026-05-01 11:32 | 24.20513 | 9.50617 | 38151 ft | 457 kts | 319° |
| 2026-05-01 11:33 | 24.26000 | 9.47129 | 38153 ft | 460 kts | 321° |
| 2026-05-01 11:33 | 24.28941 | 9.45662 | 38159 ft | 472 kts | 328° |
| 2026-05-01 11:33 | 24.32114 | 9.44615 | 38160 ft | 481 kts | 335° |
| 2026-05-01 11:34 | 24.38674 | 9.43024 | 38154 ft | 486 kts | 337° |
| 2026-05-01 11:34 | 24.45304 | 9.41600 | 38125 ft | 486 kts | 338° |
| 2026-05-01 11:35 | 24.51928 | 9.40175 | 38100 ft | 486 kts | 337° |
| 2026-05-01 11:35 | 24.58544 | 9.38720 | 38070 ft | 486 kts | 337° |
| 2026-05-01 11:36 | 24.65155 | 9.37250 | 38045 ft | 486 kts | 337° |
| 2026-05-01 11:36 | 24.71764 | 9.35779 | 38063 ft | 485 kts | 337° |
| 2026-05-01 11:37 | 24.78354 | 9.34314 | 38062 ft | 482 kts | 337° |
| 2026-05-01 11:37 | 24.84908 | 9.32853 | 38054 ft | 481 kts | 337° |
| 2026-05-01 11:38 | 24.91460 | 9.31387 | 38063 ft | 481 kts | 337° |
| 2026-05-01 11:38 | 24.98010 | 9.29922 | 38064 ft | 481 kts | 337° |
| 2026-05-01 11:39 | 25.04559 | 9.28457 | 38105 ft | 481 kts | 337° |
| 2026-05-01 11:39 | 25.11104 | 9.26993 | 38069 ft | 481 kts | 337° |
| 2026-05-01 11:40 | 25.17643 | 9.25527 | 38069 ft | 480 kts | 337° |
| 2026-05-01 11:40 | 25.24180 | 9.24059 | 38042 ft | 480 kts | 337° |
| 2026-05-01 11:41 | 25.30719 | 9.22589 | 38061 ft | 481 kts | 337° |
| 2026-05-01 11:41 | 25.37261 | 9.21117 | 38060 ft | 481 kts | 337° |
| 2026-05-01 11:42 | 25.43800 | 9.19644 | 38041 ft | 481 kts | 337° |
| 2026-05-01 11:42 | 25.50340 | 9.18171 | 38025 ft | 481 kts | 337° |
| 2026-05-01 11:43 | 25.56880 | 9.16694 | 38023 ft | 481 kts | 337° |
| 2026-05-01 11:43 | 25.63419 | 9.15217 | 38004 ft | 481 kts | 337° |
| 2026-05-01 11:44 | 25.73224 | 9.13000 | 38006 ft | 480 kts | 337° |
| 2026-05-01 11:44 | 25.79750 | 9.11520 | 38006 ft | 480 kts | 337° |
| 2026-05-01 11:45 | 25.86275 | 9.10041 | 37993 ft | 479 kts | 337° |
| 2026-05-01 11:45 | 25.92796 | 9.08561 | 38002 ft | 479 kts | 337° |
| 2026-05-01 11:46 | 25.99314 | 9.07080 | 38016 ft | 478 kts | 337° |
| 2026-05-01 11:46 | 26.05797 | 9.05617 | 37987 ft | 475 kts | 337° |
| 2026-05-01 11:47 | 26.12250 | 9.04154 | 38011 ft | 474 kts | 337° |
| 2026-05-01 11:47 | 26.18701 | 9.02691 | 38303 ft | 474 kts | 337° |
| 2026-05-01 11:48 | 26.21921 | 9.01968 | 38672 ft | 471 kts | 337° |
| 2026-05-01 11:48 | 26.25124 | 9.01248 | 38909 ft | 470 kts | 337° |
| 2026-05-01 11:48 | 26.28322 | 9.00527 | 39184 ft | 470 kts | 337° |
| 2026-05-01 11:48 | 26.31500 | 8.99812 | 39574 ft | 464 kts | 337° |
| 2026-05-01 11:49 | 26.34639 | 8.99106 | 39887 ft | 461 kts | 337° |
| 2026-05-01 11:49 | 26.37783 | 8.98392 | 39961 ft | 463 kts | 337° |
| 2026-05-01 11:49 | 26.44101 | 8.96946 | 39975 ft | 465 kts | 337° |
| 2026-05-01 11:50 | 26.50420 | 8.95508 | 39960 ft | 464 kts | 337° |
| 2026-05-01 11:50 | 26.56744 | 8.94068 | 39959 ft | 465 kts | 337° |
| 2026-05-01 11:51 | 26.63062 | 8.92629 | 39952 ft | 463 kts | 338° |
| 2026-05-01 11:51 | 26.69356 | 8.91196 | 39950 ft | 462 kts | 338° |
| 2026-05-01 11:52 | 26.75647 | 8.89759 | 39987 ft | 462 kts | 338° |
| 2026-05-01 11:52 | 26.81935 | 8.88320 | 39985 ft | 462 kts | 338° |
| 2026-05-01 11:53 | 26.88224 | 8.86880 | 39976 ft | 462 kts | 338° |
| 2026-05-01 11:53 | 26.94517 | 8.85438 | 39966 ft | 463 kts | 338° |
| 2026-05-01 11:54 | 27.00822 | 8.83991 | 39946 ft | 464 kts | 338° |
| 2026-05-01 11:54 | 27.07130 | 8.82555 | 39943 ft | 464 kts | 338° |
| 2026-05-01 11:55 | 27.13441 | 8.81121 | 39940 ft | 464 kts | 338° |
| 2026-05-01 11:55 | 27.19748 | 8.79685 | 39940 ft | 464 kts | 338° |
| 2026-05-01 11:56 | 27.26067 | 8.78242 | 39937 ft | 465 kts | 338° |
| 2026-05-01 11:56 | 27.32396 | 8.76795 | 39929 ft | 465 kts | 338° |
| 2026-05-01 11:57 | 27.37671 | 8.75589 | 39933 ft | 465 kts | 338° |
| 2026-05-01 11:57 | 27.45056 | 8.73898 | 39927 ft | 465 kts | 338° |
| 2026-05-01 11:58 | 27.51382 | 8.72448 | 39925 ft | 465 kts | 338° |
| 2026-05-01 11:59 | 27.60865 | 8.70271 | 39921 ft | 464 kts | 338° |
| 2026-05-01 11:59 | 27.67179 | 8.68819 | 39925 ft | 464 kts | 338° |
| 2026-05-01 12:00 | 27.76643 | 8.66638 | 39923 ft | 464 kts | 338° |
| 2026-05-01 12:01 | 27.86107 | 8.64454 | 39921 ft | 464 kts | 338° |
| 2026-05-01 12:01 | 27.92416 | 8.62996 | 39916 ft | 464 kts | 338° |
| 2026-05-01 12:02 | 27.98730 | 8.61535 | 39917 ft | 464 kts | 338° |
| 2026-05-01 12:02 | 28.05041 | 8.60073 | 39911 ft | 464 kts | 338° |
| 2026-05-01 12:03 | 28.11352 | 8.58608 | 39935 ft | 464 kts | 338° |
| 2026-05-01 12:03 | 28.17659 | 8.57159 | 39909 ft | 463 kts | 338° |
| 2026-05-01 12:04 | 28.23956 | 8.55722 | 39912 ft | 463 kts | 338° |
| 2026-05-01 12:04 | 28.30255 | 8.54278 | 39907 ft | 463 kts | 338° |
| 2026-05-01 12:05 | 28.36553 | 8.52829 | 39907 ft | 463 kts | 338° |
| 2026-05-01 12:05 | 28.45996 | 8.50654 | 39908 ft | 463 kts | 338° |
| 2026-05-01 12:06 | 28.52291 | 8.49202 | 39900 ft | 463 kts | 338° |
| 2026-05-01 12:06 | 28.58586 | 8.47748 | 39903 ft | 462 kts | 338° |
| 2026-05-01 12:07 | 28.64879 | 8.46293 | 39896 ft | 462 kts | 338° |
| 2026-05-01 12:07 | 28.71172 | 8.44835 | 39898 ft | 462 kts | 339° |
| 2026-05-01 12:08 | 28.77463 | 8.43377 | 39887 ft | 462 kts | 339° |
| 2026-05-01 12:08 | 28.83749 | 8.41918 | 39889 ft | 462 kts | 339° |
| 2026-05-01 12:09 | 28.90040 | 8.40456 | 39882 ft | 462 kts | 339° |
| 2026-05-01 12:09 | 28.96329 | 8.38993 | 39880 ft | 462 kts | 339° |
| 2026-05-01 12:10 | 29.05766 | 8.36791 | 39879 ft | 463 kts | 339° |
| 2026-05-01 12:11 | 29.15223 | 8.34585 | 39865 ft | 463 kts | 339° |
| 2026-05-01 12:11 | 29.21517 | 8.33115 | 39871 ft | 461 kts | 339° |
| 2026-05-01 12:12 | 29.27788 | 8.31648 | 39860 ft | 460 kts | 339° |
| 2026-05-01 12:12 | 29.34059 | 8.30175 | 39857 ft | 462 kts | 340° |
| 2026-05-01 12:13 | 29.40344 | 8.28698 | 39874 ft | 462 kts | 340° |
| 2026-05-01 12:13 | 29.46629 | 8.27221 | 39850 ft | 462 kts | 340° |
| 2026-05-01 12:14 | 29.52910 | 8.25743 | 39853 ft | 462 kts | 340° |
| 2026-05-01 12:14 | 29.59199 | 8.24261 | 39861 ft | 462 kts | 340° |
| 2026-05-01 12:15 | 29.65494 | 8.22776 | 39854 ft | 463 kts | 340° |
| 2026-05-01 12:15 | 29.71793 | 8.21288 | 39852 ft | 463 kts | 340° |
| 2026-05-01 12:16 | 29.78093 | 8.19798 | 39852 ft | 463 kts | 340° |
| 2026-05-01 12:16 | 29.84392 | 8.18307 | 39853 ft | 463 kts | 340° |
| 2026-05-01 12:17 | 29.90690 | 8.16812 | 39852 ft | 464 kts | 341° |
| 2026-05-01 12:17 | 29.97023 | 8.15307 | 39854 ft | 466 kts | 341° |
| 2026-05-01 12:18 | 30.03360 | 8.13801 | 39855 ft | 466 kts | 341° |
| 2026-05-01 12:18 | 30.09693 | 8.12303 | 39851 ft | 465 kts | 341° |
| 2026-05-01 12:19 | 30.16025 | 8.10825 | 39880 ft | 466 kts | 341° |
| 2026-05-01 12:19 | 30.22377 | 8.09338 | 39851 ft | 468 kts | 341° |
| 2026-05-01 12:20 | 30.28741 | 8.07846 | 39858 ft | 468 kts | 341° |
| 2026-05-01 12:20 | 30.35110 | 8.06352 | 39857 ft | 468 kts | 341° |
| 2026-05-01 12:21 | 30.41479 | 8.04853 | 39856 ft | 468 kts | 341° |
| 2026-05-01 12:21 | 30.47846 | 8.03353 | 39859 ft | 468 kts | 340° |
| 2026-05-01 12:22 | 30.53099 | 8.01956 | 39862 ft | 464 kts | 335° |
| 2026-05-01 12:22 | 30.60513 | 8.00151 | 39864 ft | 469 kts | 342° |
| 2026-05-01 12:23 | 30.66917 | 7.98783 | 39862 ft | 469 kts | 342° |
| 2026-05-01 12:23 | 30.73304 | 7.97341 | 39885 ft | 468 kts | 342° |
| 2026-05-01 12:24 | 30.79686 | 7.95839 | 39872 ft | 468 kts | 342° |
| 2026-05-01 12:24 | 30.86036 | 7.94328 | 39883 ft | 466 kts | 342° |
| 2026-05-01 12:25 | 30.95549 | 7.92060 | 39893 ft | 466 kts | 342° |
| 2026-05-01 12:26 | 31.01890 | 7.90548 | 39908 ft | 466 kts | 342° |
| 2026-05-01 12:26 | 31.11447 | 7.88266 | 39915 ft | 469 kts | 342° |
| 2026-05-01 12:27 | 31.21025 | 7.85978 | 39920 ft | 469 kts | 342° |
| 2026-05-01 12:28 | 31.30602 | 7.83687 | 39924 ft | 470 kts | 343° |
| 2026-05-01 12:29 | 31.40224 | 7.81376 | 39925 ft | 472 kts | 343° |
| 2026-05-01 12:29 | 31.49860 | 7.79059 | 39926 ft | 472 kts | 343° |
| 2026-05-01 12:30 | 31.59497 | 7.76736 | 39942 ft | 473 kts | 343° |
| 2026-05-01 12:31 | 31.65934 | 7.75180 | 39947 ft | 474 kts | 343° |
| 2026-05-01 12:31 | 31.72375 | 7.73623 | 39950 ft | 474 kts | 343° |
| 2026-05-01 12:32 | 31.78571 | 7.71298 | 39957 ft | 466 kts | 333° |
| 2026-05-01 12:32 | 31.87444 | 7.66709 | 39975 ft | 466 kts | 331° |
| 2026-05-01 12:33 | 31.93354 | 7.63537 | 39968 ft | 468 kts | 331° |
| 2026-05-01 12:33 | 31.99276 | 7.60369 | 39982 ft | 469 kts | 331° |
| 2026-05-01 12:34 | 32.05201 | 7.57210 | 39970 ft | 466 kts | 331° |
| 2026-05-01 12:34 | 32.11075 | 7.54080 | 39980 ft | 463 kts | 331° |
| 2026-05-01 12:35 | 32.16935 | 7.50948 | 39987 ft | 465 kts | 332° |
| 2026-05-01 12:35 | 32.22824 | 7.47796 | 39993 ft | 466 kts | 332° |
| 2026-05-01 12:36 | 32.28716 | 7.44639 | 39979 ft | 466 kts | 332° |
| 2026-05-01 12:36 | 32.34609 | 7.41478 | 39996 ft | 466 kts | 332° |
| 2026-05-01 12:37 | 32.40502 | 7.38312 | 40004 ft | 466 kts | 332° |
| 2026-05-01 12:37 | 32.46402 | 7.35137 | 40004 ft | 468 kts | 332° |
| 2026-05-01 12:38 | 32.52319 | 7.31949 | 40004 ft | 468 kts | 332° |
| 2026-05-01 12:38 | 32.58230 | 7.28760 | 40004 ft | 468 kts | 332° |
| 2026-05-01 12:39 | 32.64145 | 7.25564 | 40002 ft | 468 kts | 332° |
| 2026-05-01 12:39 | 32.70053 | 7.22365 | 40005 ft | 469 kts | 332° |
| 2026-05-01 12:40 | 32.76009 | 7.19135 | 40004 ft | 473 kts | 332° |
| 2026-05-01 12:40 | 32.81991 | 7.15888 | 40004 ft | 474 kts | 332° |
| 2026-05-01 12:41 | 32.87979 | 7.12635 | 39999 ft | 474 kts | 332° |
| 2026-05-01 12:41 | 32.93964 | 7.09377 | 39999 ft | 474 kts | 332° |
| 2026-05-01 12:42 | 32.99946 | 7.06115 | 40006 ft | 474 kts | 332° |
| 2026-05-01 12:42 | 33.05940 | 7.02841 | 40003 ft | 475 kts | 332° |
| 2026-05-01 12:43 | 33.11932 | 6.99564 | 40003 ft | 475 kts | 332° |
| 2026-05-01 12:43 | 33.17923 | 6.96283 | 40002 ft | 475 kts | 332° |
| 2026-05-01 12:44 | 33.23912 | 6.92999 | 40017 ft | 475 kts | 332° |
| 2026-05-01 12:45 | 33.35924 | 6.86395 | 40053 ft | 475 kts | 332° |
| 2026-05-01 12:45 | 33.41907 | 6.83098 | 40072 ft | 474 kts | 332° |
| 2026-05-01 12:46 | 33.47786 | 6.79774 | 40075 ft | 469 kts | 328° |
| 2026-05-01 12:46 | 33.52968 | 6.75201 | 40076 ft | 463 kts | 312° |
| 2026-05-01 12:47 | 33.57370 | 6.69497 | 40074 ft | 465 kts | 309° |
| 2026-05-01 12:47 | 33.61594 | 6.63642 | 40055 ft | 465 kts | 308° |
| 2026-05-01 12:48 | 33.65801 | 6.57769 | 40041 ft | 465 kts | 308° |
| 2026-05-01 12:48 | 33.70023 | 6.51909 | 40016 ft | 465 kts | 309° |
| 2026-05-01 12:49 | 33.74251 | 6.46057 | 40013 ft | 465 kts | 309° |
| 2026-05-01 12:49 | 33.78450 | 6.40241 | 40017 ft | 458 kts | 309° |
| 2026-05-01 12:50 | 33.82610 | 6.34468 | 40023 ft | 458 kts | 309° |
| 2026-05-01 12:50 | 33.86775 | 6.28675 | 40025 ft | 459 kts | 309° |
| 2026-05-01 12:51 | 33.90939 | 6.22875 | 40028 ft | 459 kts | 309° |
| 2026-05-01 12:52 | 33.97180 | 6.14165 | 40029 ft | 459 kts | 309° |
| 2026-05-01 12:52 | 34.03406 | 6.05455 | 40027 ft | 456 kts | 309° |
| 2026-05-01 12:53 | 34.09582 | 5.96796 | 40034 ft | 455 kts | 308° |
| 2026-05-01 12:54 | 34.13707 | 5.90997 | 40035 ft | 457 kts | 308° |
| 2026-05-01 12:54 | 34.19897 | 5.82280 | 40035 ft | 457 kts | 308° |
| 2026-05-01 12:55 | 34.26081 | 5.73550 | 40034 ft | 457 kts | 308° |
| 2026-05-01 12:56 | 34.30196 | 5.67729 | 40033 ft | 455 kts | 308° |
| 2026-05-01 12:56 | 34.34290 | 5.61929 | 40038 ft | 454 kts | 308° |
| 2026-05-01 12:57 | 34.38381 | 5.56122 | 40034 ft | 455 kts | 308° |
| 2026-05-01 12:57 | 34.44529 | 5.47378 | 40034 ft | 456 kts | 308° |
| 2026-05-01 12:58 | 34.48624 | 5.41542 | 40035 ft | 456 kts | 308° |
| 2026-05-01 12:59 | 34.54761 | 5.32778 | 40035 ft | 455 kts | 308° |
| 2026-05-01 12:59 | 34.60868 | 5.24035 | 40036 ft | 452 kts | 308° |
| 2026-05-01 13:00 | 34.66965 | 5.15285 | 40043 ft | 455 kts | 308° |
| 2026-05-01 13:01 | 34.73079 | 5.06487 | 40040 ft | 455 kts | 308° |
| 2026-05-01 13:02 | 34.79193 | 4.97683 | 40056 ft | 455 kts | 308° |
| 2026-05-01 13:07 | 35.24257 | 4.33698 | 40120 ft | 454 kts | 308° |
| 2026-05-01 13:08 | 35.28343 | 4.27835 | 40129 ft | 454 kts | 308° |
| 2026-05-01 13:08 | 35.32573 | 4.22117 | 40127 ft | 455 kts | 315° |
| 2026-05-01 13:09 | 35.37713 | 4.17568 | 40127 ft | 458 kts | 324° |
| 2026-05-01 13:09 | 35.43158 | 4.13551 | 40130 ft | 458 kts | 326° |
| 2026-05-01 13:10 | 35.48654 | 4.09612 | 40113 ft | 459 kts | 326° |
| 2026-05-01 13:10 | 35.54153 | 4.05653 | 40102 ft | 459 kts | 326° |
| 2026-05-01 13:11 | 35.59640 | 4.01672 | 40094 ft | 459 kts | 326° |
| 2026-05-01 13:11 | 35.65126 | 3.97674 | 40086 ft | 459 kts | 326° |
| 2026-05-01 13:12 | 35.70617 | 3.93679 | 40104 ft | 460 kts | 326° |
| 2026-05-01 13:12 | 35.76144 | 3.89690 | 40102 ft | 462 kts | 326° |
| 2026-05-01 13:13 | 35.81687 | 3.85688 | 40111 ft | 463 kts | 326° |
| 2026-05-01 13:13 | 35.87230 | 3.81674 | 40111 ft | 463 kts | 326° |
| 2026-05-01 13:14 | 35.92768 | 3.77654 | 40127 ft | 462 kts | 326° |
| 2026-05-01 13:14 | 35.98292 | 3.73636 | 40127 ft | 462 kts | 326° |
| 2026-05-01 13:15 | 36.03819 | 3.69609 | 40136 ft | 462 kts | 326° |
| 2026-05-01 13:15 | 36.09343 | 3.65577 | 40132 ft | 462 kts | 326° |
| 2026-05-01 13:16 | 36.14865 | 3.61541 | 40133 ft | 462 kts | 326° |
| 2026-05-01 13:16 | 36.20383 | 3.57501 | 40148 ft | 462 kts | 326° |
| 2026-05-01 13:17 | 36.31432 | 3.49392 | 40160 ft | 463 kts | 326° |
| 2026-05-01 13:18 | 36.39716 | 3.43295 | 40149 ft | 463 kts | 326° |
| 2026-05-01 13:18 | 36.45238 | 3.39221 | 40159 ft | 462 kts | 326° |
| 2026-05-01 13:19 | 36.50758 | 3.35142 | 40165 ft | 463 kts | 326° |
| 2026-05-01 13:20 | 36.59052 | 3.29001 | 40155 ft | 463 kts | 326° |
| 2026-05-01 13:20 | 36.64583 | 3.24898 | 40155 ft | 463 kts | 326° |
| 2026-05-01 13:21 | 36.72851 | 3.18693 | 40159 ft | 464 kts | 324° |
| 2026-05-01 13:21 | 36.78296 | 3.14392 | 40157 ft | 465 kts | 324° |
| 2026-05-01 13:22 | 36.83739 | 3.10069 | 40163 ft | 465 kts | 324° |
| 2026-05-01 13:22 | 36.89192 | 3.05759 | 40159 ft | 465 kts | 324° |
| 2026-05-01 13:23 | 36.94648 | 3.01456 | 40160 ft | 465 kts | 324° |
| 2026-05-01 13:23 | 37.00097 | 2.97153 | 40166 ft | 464 kts | 324° |
| 2026-05-01 13:24 | 37.05542 | 2.92846 | 40162 ft | 464 kts | 324° |
| 2026-05-01 13:25 | 37.13705 | 2.86374 | 40163 ft | 464 kts | 324° |
| 2026-05-01 13:25 | 37.19147 | 2.82049 | 40162 ft | 464 kts | 324° |
| 2026-05-01 13:26 | 37.24589 | 2.77717 | 40152 ft | 465 kts | 324° |
| 2026-05-01 13:26 | 37.30035 | 2.73374 | 40168 ft | 465 kts | 324° |
| 2026-05-01 13:27 | 37.35479 | 2.69026 | 40168 ft | 465 kts | 324° |
| 2026-05-01 13:27 | 37.43635 | 2.62497 | 40153 ft | 464 kts | 324° |
| 2026-05-01 13:28 | 37.51779 | 2.55960 | 40166 ft | 464 kts | 324° |
| 2026-05-01 13:29 | 37.62635 | 2.47220 | 40162 ft | 464 kts | 324° |
| 2026-05-01 13:31 | 37.78942 | 2.34032 | 40169 ft | 466 kts | 324° |
| 2026-05-01 13:32 | 37.92782 | 2.23402 | 40171 ft | 466 kts | 326° |
| 2026-05-01 13:33 | 38.06660 | 2.12861 | 40170 ft | 466 kts | 326° |
| 2026-05-01 13:34 | 38.17745 | 2.04365 | 40190 ft | 466 kts | 326° |
| 2026-05-01 13:35 | 38.26087 | 1.97954 | 40173 ft | 469 kts | 326° |
| 2026-05-01 13:36 | 38.34451 | 1.91510 | 40174 ft | 469 kts | 326° |
| 2026-05-01 13:36 | 38.42794 | 1.85069 | 40174 ft | 467 kts | 326° |
| 2026-05-01 13:37 | 38.45566 | 1.82920 | 39999 ft | 468 kts | 326° |
| 2026-05-01 13:37 | 38.47419 | 1.81483 | 39942 ft | 467 kts | 326° |
| 2026-05-01 13:37 | 38.49202 | 1.80100 | 40033 ft | 466 kts | 326° |
| 2026-05-01 13:39 | 38.51477 | 1.78334 | 40158 ft | 467 kts | 326° |
| 2026-05-01 13:39 | 38.54246 | 1.76184 | 40174 ft | 467 kts | 326° |
| 2026-05-01 13:40 | 38.59780 | 1.71878 | 40176 ft | 467 kts | 326° |
| 2026-05-01 13:40 | 38.65315 | 1.67570 | 40176 ft | 467 kts | 326° |
| 2026-05-01 13:41 | 38.70861 | 1.63244 | 40177 ft | 468 kts | 326° |
| 2026-05-01 13:41 | 38.76414 | 1.58906 | 40178 ft | 469 kts | 326° |
| 2026-05-01 13:42 | 38.81967 | 1.54558 | 40181 ft | 469 kts | 326° |
| 2026-05-01 13:42 | 38.87524 | 1.50232 | 40180 ft | 468 kts | 328° |
| 2026-05-01 13:43 | 38.93562 | 1.47102 | 40184 ft | 474 kts | 343° |
| 2026-05-01 13:43 | 39.00101 | 1.45820 | 40184 ft | 478 kts | 350° |
| 2026-05-01 13:44 | 39.06711 | 1.44959 | 40181 ft | 479 kts | 351° |
| 2026-05-01 13:44 | 39.13331 | 1.44155 | 40177 ft | 479 kts | 351° |
| 2026-05-01 13:45 | 39.19950 | 1.43323 | 40172 ft | 479 kts | 351° |
| 2026-05-01 13:45 | 39.26583 | 1.42461 | 40168 ft | 480 kts | 351° |
| 2026-05-01 13:46 | 39.33210 | 1.41593 | 40174 ft | 480 kts | 351° |
| 2026-05-01 13:46 | 39.39841 | 1.40719 | 40176 ft | 481 kts | 351° |
| 2026-05-01 13:47 | 39.46488 | 1.39843 | 40178 ft | 481 kts | 351° |
| 2026-05-01 13:47 | 39.53142 | 1.38969 | 40174 ft | 481 kts | 351° |
| 2026-05-01 13:48 | 39.59792 | 1.38092 | 40179 ft | 482 kts | 351° |
| 2026-05-01 13:48 | 39.66460 | 1.37214 | 40180 ft | 483 kts | 351° |
| 2026-05-01 13:49 | 39.73131 | 1.36328 | 40182 ft | 483 kts | 351° |
| 2026-05-01 13:49 | 39.79803 | 1.35440 | 40192 ft | 483 kts | 351° |
| 2026-05-01 13:50 | 39.86486 | 1.34548 | 40191 ft | 485 kts | 352° |
| 2026-05-01 13:50 | 39.93181 | 1.33656 | 40188 ft | 485 kts | 352° |
| 2026-05-01 13:51 | 39.99880 | 1.32761 | 40188 ft | 485 kts | 352° |
| 2026-05-01 13:51 | 40.06581 | 1.31864 | 40192 ft | 486 kts | 352° |
| 2026-05-01 13:52 | 40.13295 | 1.30963 | 40193 ft | 486 kts | 352° |
| 2026-05-01 13:52 | 40.20012 | 1.30060 | 40193 ft | 486 kts | 352° |
| 2026-05-01 13:53 | 40.26732 | 1.29155 | 40195 ft | 486 kts | 352° |
| 2026-05-01 13:53 | 40.36824 | 1.27792 | 40197 ft | 487 kts | 352° |
| 2026-05-01 13:54 | 40.43557 | 1.26881 | 40200 ft | 487 kts | 352° |
| 2026-05-01 13:54 | 40.50291 | 1.25967 | 40206 ft | 487 kts | 352° |
| 2026-05-01 13:55 | 40.57026 | 1.25051 | 40207 ft | 487 kts | 352° |
| 2026-05-01 13:55 | 40.63761 | 1.24134 | 40207 ft | 487 kts | 352° |
| 2026-05-01 13:56 | 40.70494 | 1.23215 | 40208 ft | 487 kts | 352° |
| 2026-05-01 13:56 | 40.77228 | 1.22294 | 40209 ft | 487 kts | 352° |
| 2026-05-01 13:57 | 40.82838 | 1.21525 | 40216 ft | 487 kts | 352° |
| 2026-05-01 13:57 | 40.90692 | 1.20446 | 40234 ft | 487 kts | 352° |
| 2026-05-01 13:58 | 40.97427 | 1.19519 | 40232 ft | 488 kts | 352° |
| 2026-05-01 13:58 | 41.04161 | 1.18591 | 40237 ft | 488 kts | 352° |
| 2026-05-01 13:59 | 41.10899 | 1.17660 | 40237 ft | 488 kts | 352° |
| 2026-05-01 13:59 | 41.17639 | 1.16749 | 40238 ft | 488 kts | 352° |
| 2026-05-01 14:00 | 41.24402 | 1.16046 | 40237 ft | 489 kts | 353° |
| 2026-05-01 14:00 | 41.31171 | 1.15383 | 40229 ft | 489 kts | 353° |
| 2026-05-01 14:01 | 41.37936 | 1.14697 | 40222 ft | 488 kts | 353° |
| 2026-05-01 14:01 | 41.44693 | 1.13989 | 40208 ft | 488 kts | 353° |
| 2026-05-01 14:02 | 41.51445 | 1.13275 | 40200 ft | 488 kts | 353° |
| 2026-05-01 14:02 | 41.58192 | 1.12565 | 40198 ft | 487 kts | 353° |
| 2026-05-01 14:03 | 41.64935 | 1.11850 | 40185 ft | 487 kts | 353° |
| 2026-05-01 14:03 | 41.71680 | 1.11135 | 40189 ft | 487 kts | 353° |
| 2026-05-01 14:04 | 41.78421 | 1.10419 | 40190 ft | 487 kts | 353° |
| 2026-05-01 14:04 | 41.84080 | 1.09814 | 40185 ft | 487 kts | 353° |
| 2026-05-01 14:05 | 41.91899 | 1.08977 | 40185 ft | 487 kts | 353° |
| 2026-05-01 14:05 | 41.98636 | 1.08256 | 40195 ft | 487 kts | 353° |
| 2026-05-01 14:06 | 42.05369 | 1.07535 | 40188 ft | 486 kts | 353° |
| 2026-05-01 14:06 | 42.12102 | 1.06812 | 40196 ft | 486 kts | 353° |
| 2026-05-01 14:07 | 42.17713 | 1.06211 | 40201 ft | 486 kts | 353° |
| 2026-05-01 14:08 | 42.27854 | 1.05119 | 40236 ft | 486 kts | 353° |
| 2026-05-01 14:08 | 42.35705 | 1.04269 | 40232 ft | 486 kts | 353° |
| 2026-05-01 14:09 | 42.41317 | 1.03660 | 40239 ft | 487 kts | 353° |
| 2026-05-01 14:09 | 42.48049 | 1.02934 | 40244 ft | 486 kts | 353° |
| 2026-05-01 14:10 | 42.54781 | 1.02200 | 40238 ft | 486 kts | 353° |
| 2026-05-01 14:10 | 42.62600 | 1.01056 | 40242 ft | 484 kts | 345° |
| 2026-05-01 14:11 | 42.69007 | 0.98470 | 40239 ft | 480 kts | 338° |
| 2026-05-01 14:11 | 42.78329 | 0.93542 | 40216 ft | 480 kts | 336° |
| 2026-05-01 14:12 | 42.84543 | 0.90248 | 40221 ft | 480 kts | 336° |
| 2026-05-01 14:12 | 42.89733 | 0.87551 | 40198 ft | 480 kts | 337° |
| 2026-05-01 14:13 | 42.95968 | 0.84335 | 40204 ft | 480 kts | 337° |
| 2026-05-01 14:13 | 43.03248 | 0.80574 | 40200 ft | 480 kts | 337° |
| 2026-05-01 14:14 | 43.08438 | 0.77883 | 39869 ft | 479 kts | 337° |
| 2026-05-01 14:14 | 43.12595 | 0.75724 | 40196 ft | 482 kts | 337° |
| 2026-05-01 14:14 | 43.14680 | 0.74639 | 40189 ft | 481 kts | 337° |
| 2026-05-01 14:15 | 43.20914 | 0.71391 | 40184 ft | 480 kts | 337° |
| 2026-05-01 14:15 | 43.27145 | 0.68138 | 40184 ft | 480 kts | 337° |
| 2026-05-01 14:16 | 43.33379 | 0.64875 | 40183 ft | 481 kts | 337° |
| 2026-05-01 14:16 | 43.39614 | 0.61606 | 40183 ft | 481 kts | 337° |
| 2026-05-01 14:17 | 43.46885 | 0.57784 | 40181 ft | 481 kts | 337° |
| 2026-05-01 14:17 | 43.52084 | 0.55045 | 40175 ft | 481 kts | 337° |
| 2026-05-01 14:18 | 43.58321 | 0.51753 | 40175 ft | 481 kts | 337° |
| 2026-05-01 14:18 | 43.64558 | 0.48453 | 40174 ft | 481 kts | 337° |
| 2026-05-01 14:19 | 43.70800 | 0.45143 | 40173 ft | 482 kts | 337° |
| 2026-05-01 14:19 | 43.78084 | 0.41271 | 40170 ft | 482 kts | 337° |
| 2026-05-01 14:20 | 43.86408 | 0.36834 | 40169 ft | 482 kts | 337° |
| 2026-05-01 14:21 | 43.92667 | 0.33489 | 40176 ft | 483 kts | 337° |
| 2026-05-01 14:21 | 43.98929 | 0.30136 | 40174 ft | 483 kts | 337° |
| 2026-05-01 14:22 | 44.09367 | 0.24527 | 40179 ft | 484 kts | 337° |
| 2026-05-01 14:22 | 44.14596 | 0.21709 | 40180 ft | 485 kts | 337° |
| 2026-05-01 14:23 | 44.20872 | 0.18322 | 40174 ft | 485 kts | 337° |
| 2026-05-01 14:23 | 44.27147 | 0.14926 | 40176 ft | 485 kts | 337° |
| 2026-05-01 14:24 | 44.33433 | 0.11517 | 40175 ft | 485 kts | 337° |
| 2026-05-01 14:24 | 44.39717 | 0.08106 | 40173 ft | 486 kts | 337° |
| 2026-05-01 14:25 | 44.46000 | 0.04680 | 40182 ft | 486 kts | 337° |
| 2026-05-01 14:25 | 44.53339 | 0.00668 | 40181 ft | 487 kts | 337° |
| 2026-05-01 14:26 | 44.62778 | -0.04504 | 40181 ft | 487 kts | 336° |
| 2026-05-01 14:27 | 44.69075 | -0.07965 | 40166 ft | 487 kts | 336° |
| 2026-05-01 14:27 | 44.75368 | -0.11432 | 40181 ft | 487 kts | 336° |
| 2026-05-01 14:28 | 44.84812 | -0.16649 | 40178 ft | 487 kts | 336° |
| 2026-05-01 14:28 | 44.90060 | -0.19556 | 40177 ft | 487 kts | 336° |
| 2026-05-01 14:29 | 44.96351 | -0.23047 | 40179 ft | 487 kts | 336° |
| 2026-05-01 14:30 | 45.09987 | -0.30646 | 40180 ft | 487 kts | 336° |
| 2026-05-01 14:31 | 45.19431 | -0.35934 | 40178 ft | 487 kts | 336° |
| 2026-05-01 14:31 | 45.24680 | -0.38881 | 40171 ft | 488 kts | 336° |
| 2026-05-01 14:32 | 45.32033 | -0.43017 | 40170 ft | 488 kts | 336° |
| 2026-05-01 14:32 | 45.37282 | -0.45977 | 40173 ft | 488 kts | 336° |
| 2026-05-01 14:33 | 45.44634 | -0.50133 | 40174 ft | 488 kts | 336° |
| 2026-05-01 14:33 | 45.49885 | -0.53109 | 40175 ft | 489 kts | 336° |
| 2026-05-01 14:34 | 45.56190 | -0.56689 | 40175 ft | 489 kts | 336° |
| 2026-05-01 14:34 | 45.62490 | -0.60271 | 40181 ft | 489 kts | 336° |
| 2026-05-01 14:35 | 45.69845 | -0.64470 | 40181 ft | 489 kts | 336° |
| 2026-05-01 14:35 | 45.75098 | -0.67479 | 40178 ft | 489 kts | 336° |
| 2026-05-01 14:36 | 45.82451 | -0.71698 | 40178 ft | 489 kts | 336° |
| 2026-05-01 14:36 | 45.87704 | -0.74718 | 40175 ft | 489 kts | 336° |
| 2026-05-01 14:37 | 45.94002 | -0.78348 | 40174 ft | 489 kts | 336° |
| 2026-05-01 14:37 | 46.01350 | -0.82594 | 40176 ft | 489 kts | 336° |
| 2026-05-01 14:38 | 46.07653 | -0.86246 | 40176 ft | 489 kts | 336° |
| 2026-05-01 14:38 | 46.13952 | -0.89905 | 40176 ft | 489 kts | 336° |
| 2026-05-01 14:39 | 46.19205 | -0.92949 | 40175 ft | 490 kts | 337° |
| 2026-05-01 14:39 | 46.25780 | -0.95558 | 40182 ft | 492 kts | 345° |
| 2026-05-01 14:40 | 46.32460 | -0.97667 | 40184 ft | 493 kts | 346° |
| 2026-05-01 14:40 | 46.40280 | -1.00034 | 40185 ft | 493 kts | 346° |
| 2026-05-01 14:41 | 46.45861 | -1.01733 | 40186 ft | 493 kts | 346° |
| 2026-05-01 14:41 | 46.53676 | -1.04136 | 40188 ft | 493 kts | 346° |
| 2026-05-01 14:42 | 46.60375 | -1.06209 | 40190 ft | 493 kts | 346° |
| 2026-05-01 14:42 | 46.67070 | -1.08287 | 40186 ft | 493 kts | 346° |
| 2026-05-01 14:43 | 46.72652 | -1.10021 | 40186 ft | 493 kts | 346° |
| 2026-05-01 14:43 | 46.80465 | -1.12455 | 40186 ft | 493 kts | 346° |
| 2026-05-01 14:44 | 46.86050 | -1.14200 | 40187 ft | 493 kts | 346° |
| 2026-05-01 14:44 | 46.96093 | -1.17347 | 40188 ft | 493 kts | 346° |
| 2026-05-01 14:45 | 47.06140 | -1.20508 | 40184 ft | 493 kts | 346° |
| 2026-05-01 14:46 | 47.12835 | -1.22621 | 40185 ft | 493 kts | 346° |
| 2026-05-01 14:46 | 47.23989 | -1.26153 | 40178 ft | 493 kts | 346° |
| 2026-05-01 14:47 | 47.30683 | -1.28280 | 40178 ft | 493 kts | 346° |
| 2026-05-01 14:48 | 47.39607 | -1.31124 | 40178 ft | 493 kts | 346° |
| 2026-05-01 14:48 | 47.49646 | -1.34335 | 40178 ft | 493 kts | 346° |
| 2026-05-01 14:49 | 47.63030 | -1.38636 | 40185 ft | 493 kts | 346° |
| 2026-05-01 14:50 | 47.77726 | -1.41749 | 40183 ft | 496 kts | 355° |
| 2026-05-01 14:51 | 47.86896 | -1.42444 | 40184 ft | 496 kts | 355° |
| 2026-05-01 14:52 | 47.98355 | -1.43272 | 40187 ft | 496 kts | 355° |
| 2026-05-01 14:53 | 48.08669 | -1.44032 | 40186 ft | 496 kts | 355° |
| 2026-05-01 14:53 | 48.14404 | -1.44440 | 40188 ft | 496 kts | 355° |
| 2026-05-01 14:54 | 48.21284 | -1.44932 | 40188 ft | 496 kts | 355° |
| 2026-05-01 14:54 | 48.28167 | -1.45426 | 40191 ft | 496 kts | 355° |
| 2026-05-01 14:55 | 48.36202 | -1.46006 | 40197 ft | 497 kts | 355° |
| 2026-05-01 14:55 | 48.43092 | -1.46505 | 40203 ft | 497 kts | 355° |
| 2026-05-01 14:56 | 48.48831 | -1.46923 | 40198 ft | 497 kts | 355° |
| 2026-05-01 14:56 | 48.55724 | -1.47424 | 40205 ft | 497 kts | 355° |
| 2026-05-01 14:57 | 48.63759 | -1.48010 | 40206 ft | 497 kts | 355° |
| 2026-05-01 14:57 | 48.74095 | -1.48768 | 40209 ft | 497 kts | 355° |
| 2026-05-01 14:58 | 48.79839 | -1.49190 | 40207 ft | 497 kts | 355° |
| 2026-05-01 14:58 | 48.87880 | -1.49807 | 40207 ft | 496 kts | 353° |
| 2026-05-01 14:59 | 48.93525 | -1.51200 | 40205 ft | 494 kts | 347° |
| 2026-05-01 14:59 | 49.00260 | -1.53255 | 40207 ft | 495 kts | 346° |
| 2026-05-01 15:00 | 49.10345 | -1.56480 | 40212 ft | 495 kts | 346° |
| 2026-05-01 15:01 | 49.17071 | -1.58660 | 40211 ft | 495 kts | 346° |
| 2026-05-01 15:01 | 49.24917 | -1.61205 | 40215 ft | 495 kts | 346° |
| 2026-05-01 15:02 | 49.30521 | -1.63026 | 40217 ft | 495 kts | 346° |
| 2026-05-01 15:02 | 49.37248 | -1.65216 | 40208 ft | 495 kts | 346° |
| 2026-05-01 15:03 | 49.45093 | -1.67779 | 40216 ft | 495 kts | 346° |
| 2026-05-01 15:03 | 49.50696 | -1.69614 | 40214 ft | 495 kts | 346° |
| 2026-05-01 15:04 | 49.57432 | -1.71763 | 40205 ft | 496 kts | 349° |
| 2026-05-01 15:04 | 49.65472 | -1.72125 | 40039 ft | 497 kts | 1° |
| 2026-05-01 15:04 | 49.68921 | -1.71898 | 39808 ft | 498 kts | 1° |
| 2026-05-01 15:05 | 49.72378 | -1.71609 | 39576 ft | 499 kts | 2° |
| 2026-05-01 15:05 | 49.74682 | -1.71402 | 39433 ft | 499 kts | 2° |
| 2026-05-01 15:05 | 49.78145 | -1.71084 | 39207 ft | 499 kts | 2° |
| 2026-05-01 15:05 | 49.82758 | -1.70666 | 38884 ft | 499 kts | 2° |
| 2026-05-01 15:06 | 49.86200 | -1.70362 | 38325 ft | 495 kts | 2° |
| 2026-05-01 15:06 | 49.88483 | -1.70163 | 37908 ft | 493 kts | 2° |
| 2026-05-01 15:06 | 49.91895 | -1.69871 | 37264 ft | 492 kts | 2° |
| 2026-05-01 15:06 | 49.95300 | -1.69581 | 36615 ft | 491 kts | 2° |
| 2026-05-01 15:07 | 49.98694 | -1.69151 | 35974 ft | 490 kts | 7° |
| 2026-05-01 15:07 | 50.02023 | -1.68060 | 35305 ft | 491 kts | 15° |
| 2026-05-01 15:07 | 50.05298 | -1.66580 | 34564 ft | 492 kts | 16° |
| 2026-05-01 15:07 | 50.08572 | -1.65022 | 33731 ft | 494 kts | 17° |
| 2026-05-01 15:08 | 50.11854 | -1.63441 | 32924 ft | 495 kts | 17° |
| 2026-05-01 15:08 | 50.15138 | -1.61851 | 32130 ft | 495 kts | 17° |
| 2026-05-01 15:08 | 50.18423 | -1.60257 | 31305 ft | 496 kts | 18° |
| 2026-05-01 15:08 | 50.21716 | -1.58655 | 30467 ft | 498 kts | 18° |
| 2026-05-01 15:09 | 50.26128 | -1.56504 | 29208 ft | 500 kts | 18° |
| 2026-05-01 15:09 | 50.28336 | -1.55429 | 28714 ft | 498 kts | 18° |
| 2026-05-01 15:09 | 50.31615 | -1.53828 | 28120 ft | 492 kts | 18° |
| 2026-05-01 15:09 | 50.34858 | -1.52238 | 27521 ft | 487 kts | 18° |
| 2026-05-01 15:10 | 50.39132 | -1.50141 | 26719 ft | 481 kts | 18° |
| 2026-05-01 15:10 | 50.45453 | -1.47033 | 25527 ft | 473 kts | 18° |
| 2026-05-01 15:10 | 50.48579 | -1.45493 | 24930 ft | 470 kts | 18° |
| 2026-05-01 15:11 | 50.50649 | -1.44472 | 24532 ft | 468 kts | 19° |
| 2026-05-01 15:11 | 50.56575 | -1.40568 | 23300 ft | 459 kts | 30° |
| 2026-05-01 15:11 | 50.59364 | -1.38185 | 22701 ft | 455 kts | 31° |
| 2026-05-01 15:12 | 50.63031 | -1.35016 | 21933 ft | 449 kts | 31° |
| 2026-05-01 15:12 | 50.68448 | -1.30339 | 20790 ft | 442 kts | 30° |
| 2026-05-01 15:12 | 50.70238 | -1.28793 | 20393 ft | 439 kts | 30° |
| 2026-05-01 15:13 | 50.78165 | -1.21853 | 18674 ft | 431 kts | 34° |
| 2026-05-01 15:14 | 50.83937 | -1.15783 | 17236 ft | 424 kts | 36° |
| 2026-05-01 15:14 | 50.86386 | -1.13208 | 16665 ft | 423 kts | 35° |
| 2026-05-01 15:14 | 50.91266 | -1.08117 | 15475 ft | 419 kts | 35° |
| 2026-05-01 15:15 | 50.95301 | -1.03922 | 14473 ft | 415 kts | 35° |
| 2026-05-01 15:15 | 51.00768 | -0.97888 | 13025 ft | 406 kts | 46° |
| 2026-05-01 15:16 | 51.04577 | -0.91346 | 12326 ft | 405 kts | 51° |
| 2026-05-01 15:16 | 51.08292 | -0.84701 | 11585 ft | 401 kts | 51° |
| 2026-05-01 15:17 | 51.11970 | -0.78126 | 10950 ft | 391 kts | 51° |
| 2026-05-01 15:18 | 51.17069 | -0.69004 | 10166 ft | 342 kts | 51° |
| 2026-05-01 15:18 | 51.18596 | -0.66278 | 9756 ft | 321 kts | 51° |
| 2026-05-01 15:19 | 51.22811 | -0.58672 | 8713 ft | 301 kts | 51° |
| 2026-05-01 15:19 | 51.25509 | -0.53801 | 7864 ft | 286 kts | 51° |
| 2026-05-01 15:19 | 51.26807 | -0.51455 | 7369 ft | 277 kts | 51° |
| 2026-05-01 15:20 | 51.29108 | -0.46886 | 7160 ft | 258 kts | 67° |
| 2026-05-01 15:20 | 51.29773 | -0.44252 | 7157 ft | 255 kts | 75° |
| 2026-05-01 15:20 | 51.30337 | -0.41570 | 7176 ft | 255 kts | 76° |
| 2026-05-01 15:21 | 51.30885 | -0.38884 | 7173 ft | 255 kts | 75° |
| 2026-05-01 15:21 | 51.31430 | -0.36191 | 7174 ft | 255 kts | 76° |
| 2026-05-01 15:21 | 51.31976 | -0.33491 | 7177 ft | 256 kts | 76° |
| 2026-05-01 15:21 | 51.32519 | -0.30796 | 7176 ft | 255 kts | 76° |
| 2026-05-01 15:22 | 51.33602 | -0.25421 | 7160 ft | 255 kts | 75° |
| 2026-05-01 15:22 | 51.33962 | -0.23625 | 7157 ft | 255 kts | 75° |
| 2026-05-01 15:22 | 51.34498 | -0.20931 | 7157 ft | 255 kts | 76° |
| 2026-05-01 15:23 | 51.35219 | -0.17334 | 7161 ft | 256 kts | 76° |
| 2026-05-01 15:23 | 51.35761 | -0.14630 | 6975 ft | 257 kts | 75° |
| 2026-05-01 15:23 | 51.36303 | -0.11882 | 6638 ft | 256 kts | 76° |
| 2026-05-01 15:23 | 51.36828 | -0.09220 | 6330 ft | 253 kts | 76° |
| 2026-05-01 15:24 | 51.37574 | -0.06686 | 6006 ft | 253 kts | 53° |
| 2026-05-01 15:24 | 51.38959 | -0.05013 | 5836 ft | 245 kts | 21° |
| 2026-05-01 15:24 | 51.40548 | -0.04507 | 5670 ft | 225 kts | 3° |
| 2026-05-01 15:24 | 51.42072 | -0.04392 | 5335 ft | 216 kts | 0° |
| 2026-05-01 15:25 | 51.43545 | -0.04327 | 4910 ft | 214 kts | 360° |
| 2026-05-01 15:25 | 51.45021 | -0.04408 | 4492 ft | 206 kts | 345° |
| 2026-05-01 15:25 | 51.46218 | -0.05508 | 4052 ft | 199 kts | 308° |
| 2026-05-01 15:25 | 51.46772 | -0.06655 | 3874 ft | 193 kts | 299° |
| 2026-05-01 15:26 | 51.47465 | -0.08468 | 3559 ft | 189 kts | 292° |
| 2026-05-01 15:26 | 51.47920 | -0.11079 | 3159 ft | 179 kts | 269° |
| 2026-05-01 15:26 | 51.47950 | -0.12400 | 3019 ft | 177 kts | 265° |
| 2026-05-01 15:26 | 51.47953 | -0.14366 | 2983 ft | 178 kts | 265° |
| 2026-05-01 15:27 | 51.47944 | -0.16861 | 2982 ft | 162 kts | 264° |
| 2026-05-01 15:27 | 51.47934 | -0.18654 | 2977 ft | 160 kts | 264° |
| 2026-05-01 15:27 | 51.47929 | -0.20436 | 2874 ft | 161 kts | 263° |
| 2026-05-01 15:28 | 51.47910 | -0.23994 | 2443 ft | 160 kts | 264° |
| 2026-05-01 15:28 | 51.47901 | -0.25777 | 2234 ft | 159 kts | 263° |
| 2026-05-01 15:28 | 51.47888 | -0.27511 | 2025 ft | 157 kts | 265° |
| 2026-05-01 15:29 | 51.47865 | -0.31055 | 1617 ft | 160 kts | 264° |
| 2026-05-01 15:29 | 51.47857 | -0.32238 | 1459 ft | 160 kts | 264° |
| 2026-05-01 15:29 | 51.47837 | -0.35660 | 1053 ft | 143 kts | 265° |
| 2026-05-01 15:30 | 51.47820 | -0.38711 | 663 ft | 136 kts | 263° |
| 2026-05-01 15:31 | 51.47756 | -0.45117 | 98 ft | 104 kts | 269° |
| 2026-05-01 15:31 | 51.47752 | -0.46449 | 98 ft | 39 kts | 262° |
| 2026-05-01 15:32 | 51.47619 | -0.46876 | 96 ft | 16 kts | 210° |
| 2026-05-01 15:32 | 51.47495 | -0.47026 | 97 ft | 11 kts | 262° |
| 2026-05-01 15:33 | 51.47489 | -0.47307 | 94 ft | 5 kts | 270° |
| 2026-05-01 15:34 | 51.47489 | -0.47659 | 95 ft | 16 kts | 270° |